WELCOME TO Fly Ecuador Virtual

Fly Ecuador Virtual es una organización creada con el fin de brindar una plataforma que permita a los pilotos virtuales, principalmente ecuatorianos, tener un lugar donde registrar sus horas de vuelo, sus certificados de conocimiento adquiridos, las rutas que han volado y los destinos que han visitado. Así mismo, se busca ayudar a todos los pilotos a expandir su conocimiento sobre el mundo de la aviación real y virtual por medio de publicaciones, foros y cursos en línea.
A diferencia de las aerolíneas virtuales tradicionales, Fly Ecuador Virtual no simula las operaciones de una aerolínea del mundo real en específico. Un miembro de Fly Ecuador Virtual tiene toda la libertad de volar cualquier aeronave que opere en el espacio aéreo ecuatoriano real, en cualquier ruta, sea esta nacional o internacional, IFR o VFR, aeronaves monomotor, multimotor o helicópteros. Todo esto con el objetivo de expandir las operaciones virtuales dentro del espacio aéreo ecuatoriano, creando una comunidad en la que se compartan conocimientos y experiencias que beneficien a todos sus integrantes.
El crecimiento de Fly Ecuador Virtual depende de la participación conjunta de todos sus miembros, por este motivo se incentiva la participación en línea a través de los diferentes medios descritos más adelante en este sitio web.

STATISTICS

Pilots 61
Total hours: 4387.8
Flights total 1601

LATEST FLIGHTS

CallsignPilotDepartureArrivalDateFlight Time
ECU024Arturo CarvajalSEGUSEQM20-02-20180.52
ECU017Jorge NajeraWMKKOMAA18-02-20187.57
ECU070Luis JaramilloMPTOMMMX13-02-20183.32
ECU070Luis JaramilloSEGUMPTO12-02-20181.72
ECU024Arturo CarvajalSEGUSEQM12-02-20180.56

NEWEST PILOTS

PilotJoined
ECU079-Vicente Torres13-07-2017
ECU077-Fernando Flores Valarezo06-07-2017
ECU078-Ricardo Guzman05-07-2017
ECU075-FREDDY RIVERA29-06-2017
ECU074-Emilio Mayhua28-06-2017

FUTURE EVENTS & METARS

EventDate
METAR
SEGU - José Joaquín de Olmedo International Airport, Guayaquil, ECU
Distance from station: N 0mi, 0km
Updated: Wed, 21-Feb-2018 4:20am PST
Light drizzle, Overcast
Light drizzle, Overcast
 Wind from S
Wind: S 7 mph , 11 km/h
Temperature: 75°F , 24°C
Dew Point: 73°F , 23°C
Humidity: 94%
Barometer: 29.88 inHg , 1012 hPa
Summary: Light Drizzle
Clouds: Overcast
Visibility: 4 miles , 6 km
Cloud details: Partly Cloudy 300 ft
Mostly Cloudy 2000 ft
Overcast 8000 ft
2018/02/21 12:20 SEGU 211220Z 17006KT 6000 -DZ SCT003 BKN020 OVC080 24/23 Q1012 TEMPO 4000 RMK A2989
 
SEQM - Aeropuerto Internacional Mariscal Sucre, ECU
Distance from station: NE 120mi, 200km
Updated: Wed, 21-Feb-2018 4:00am PST
Patches of fog, Mostly cloudy
Patches of fog, Mostly cloudy
 Wind from ESE
Wind: ESE 2 mph , 4 km/h
Temperature: 54°F , 12°C
Dew Point: 54°F , 12°C
Humidity: 100%
Barometer: 30.33 inHg , 1027 hPa
Summary: Patches of Fog
Clouds: Mostly Cloudy
Visibility: 6 miles , 10 km
Cloud details: Few Clouds 300 ft
Mostly Cloudy 8000 ft
2018/02/21 12:00 SEQM 211200Z 12002KT 9999 BCFG FEW003 BKN080 12/12 Q1027 NOSIG RMK A3034
 
SECU - Mariscal Lamar Airpor, ECU
Distance from station: ENE 80mi, 120km
Updated: Wed, 21-Feb-2018 4:00am PST
Overcast
Overcast
 Wind from SW
Wind: SW 5 mph , 7 km/h
Temperature: 54°F , 12°C
Dew Point: 48°F , 9°C
Humidity: 82%
Barometer: 30.33 inHg , 1027 hPa
Clouds: Overcast
Visibility: 6 miles , 10 km
Cloud details: Overcast 4000 ft
2018/02/21 12:00 SECU 211200Z 23004KT 9999 OVC040 12/09 Q1027
 
SELT - Cotopaxi International Airport, ECU
Distance from station: NW 21mi, 34km
Updated: Wed, 21-Feb-2018 4:00am PST
Mostly Cloudy
Mostly Cloudy
 Wind from N
Wind: N 2 mph , 4 km/h
Temperature: 52°F , 11°C
Dew Point: 50°F , 10°C
Humidity: 94%
Barometer: 30.42 inHg , 1030 hPa
Clouds: Mostly Cloudy
Visibility: 6 miles , 10 km
Cloud details: Few Clouds 1000 ft
Mostly Cloudy 3000 ft
2018/02/21 12:00 SELT 211200Z 01002KT 9999 FEW010 BKN030 11/10 Q1030
 
SEMT - Eloy Alfaro International Airport, ECU
Distance from station: SSE 70mi, 100km
Updated: Wed, 21-Feb-2018 4:00am PST
Mostly Cloudy
Mostly Cloudy
 Wind from calm
Wind: Calm
Temperature: 75°F , 24°C
Dew Point: 72°F , 22°C
Humidity: 89%
Barometer: 29.88 inHg , 1012 hPa
Clouds: Mostly Cloudy
Visibility: 6 miles , 10 km
Cloud details: Mostly Cloudy 1600 ft
2018/02/21 12:00 SEMT 211200Z 00000KT 9999 BKN016 24/22 Q1012 RMK A2991

Metar display script from Saratoga-Weather.org

TWEETS

NOTAMS

NOTAMDate